Time;durP1;ratioP1;P1;durP2;ratioP2;P2;SDS_P1;SDS_P2;PMS_P1;PMS_P2;Temp;Humidity;BMP_temperature;BMP_pressure;BME280_temperature;BME280_humidity;BME280_pressure;Samples;Min_cycle;Max_cycle;Signal;HPM_P1;HPM_P2
2023/02/16 00:01:18;;;;;;;;;;;20.70;58.90;;;;;;1526909;76;1159;-62
2023/02/16 00:03:20;;;;;;;;;;;20.80;58.70;;;;;;1530858;76;1929;-59
2023/02/16 00:05:23;;;;;;;;;;;20.80;58.70;;;;;;1533850;76;735;-62
2023/02/16 00:07:25;;;;;;;;;;;20.90;58.70;;;;;;1536358;75;671;-62
2023/02/16 00:09:27;;;;;;;;;;;20.90;58.60;;;;;;1529893;76;718;-63
2023/02/16 00:13:53;;;;;;;;;;;20.80;58.50;;;;;;1523156;76;2010;-61
2023/02/16 00:15:55;;;;;;;;;;;20.90;58.70;;;;;;1533591;76;733;-62
2023/02/16 00:17:58;;;;;;;;;;;20.80;58.60;;;;;;1528661;75;712;-62
2023/02/16 00:20:00;;;;;;;;;;;20.80;58.50;;;;;;1533516;76;1123;-63
2023/02/16 00:22:02;;;;;;;;;;;20.90;59.30;;;;;;1528200;76;1948;-62
2023/02/16 00:24:04;;;;;;;;;;;20.80;59.20;;;;;;1529347;75;1107;-63
2023/02/16 00:26:06;;;;;;;;;;;20.80;59.00;;;;;;1530440;76;718;-61
2023/02/16 00:28:09;;;;;;;;;;;20.80;58.80;;;;;;1496324;77;1556;-62
2023/02/16 00:30:15;;;;;;;;;;;20.80;58.70;;;;;;1524277;75;1966;-62
2023/02/16 00:32:17;;;;;;;;;;;20.80;58.60;;;;;;1525997;76;1642;-63
2023/02/16 00:34:27;;;;;;;;;;;20.80;58.50;;;;;;1527915;76;722;-63
2023/02/16 00:36:29;;;;;;;;;;;20.80;58.50;;;;;;1533428;76;909;-63
2023/02/16 00:38:30;;;;;;;;;;;20.80;58.40;;;;;;1531976;76;657;-61
2023/02/16 00:40:32;;;;;;;;;;;20.80;58.40;;;;;;1525845;76;1297;-63
2023/02/16 00:42:34;;;;;;;;;;;20.80;58.40;;;;;;1509111;77;1955;-61
2023/02/16 00:44:37;;;;;;;;;;;20.80;58.40;;;;;;1530064;76;662;-62
2023/02/16 00:46:39;;;;;;;;;;;20.80;58.40;;;;;;1532825;76;721;-62
2023/02/16 00:48:40;;;;;;;;;;;20.80;58.40;;;;;;1532238;76;662;-63
2023/02/16 00:50:42;;;;;;;;;;;20.80;58.30;;;;;;1524857;76;1147;-62
2023/02/16 00:52:47;;;;;;;;;;;20.80;58.30;;;;;;1524149;76;772;-62
2023/02/16 00:54:49;;;;;;;;;;;20.80;58.30;;;;;;1536096;75;1544;-63
2023/02/16 00:56:51;;;;;;;;;;;20.80;58.20;;;;;;1531315;76;676;-63
2023/02/16 00:58:53;;;;;;;;;;;20.80;58.20;;;;;;1532775;76;644;-63
2023/02/16 01:00:55;;;;;;;;;;;20.80;58.20;;;;;;1535508;76;1148;-62
2023/02/16 01:02:58;;;;;;;;;;;20.80;58.20;;;;;;1520584;76;1937;-63
2023/02/16 01:05:00;;;;;;;;;;;20.90;58.30;;;;;;1531362;76;739;-62
2023/02/16 01:11:41;;;;;;;;;;;20.90;58.30;;;;;;1523175;75;1687;-62
2023/02/16 01:13:44;;;;;;;;;;;20.80;58.20;;;;;;1533163;75;790;-62
2023/02/16 01:15:45;;;;;;;;;;;20.80;58.20;;;;;;1538437;75;694;-62
2023/02/16 01:17:47;;;;;;;;;;;20.80;58.20;;;;;;1539201;76;773;-62
2023/02/16 01:19:49;;;;;;;;;;;20.80;58.20;;;;;;1533311;76;1110;-61
2023/02/16 01:21:51;;;;;;;;;;;20.80;58.40;;;;;;1520169;76;912;-62
2023/02/16 01:23:53;;;;;;;;;;;20.80;58.20;;;;;;1532200;76;1933;-61
2023/02/16 01:25:56;;;;;;;;;;;20.80;58.10;;;;;;1534624;76;910;-61
2023/02/16 01:27:58;;;;;;;;;;;20.90;58.20;;;;;;1537785;76;766;-62
2023/02/16 01:30:00;;;;;;;;;;;20.90;57.80;;;;;;1542988;76;1182;-63
2023/02/16 01:32:01;;;;;;;;;;;20.90;57.80;;;;;;1533207;76;776;-63
2023/02/16 01:34:03;;;;;;;;;;;20.90;57.80;;;;;;1542677;76;758;-62
2023/02/16 01:36:05;;;;;;;;;;;20.90;58.20;;;;;;1547388;76;678;-62
2023/02/16 01:38:09;;;;;;;;;;;20.90;57.70;;;;;;1544146;76;1494;-61
2023/02/16 01:40:18;;;;;;;;;;;20.90;57.70;;;;;;1537386;76;1901;-62
2023/02/16 01:42:28;;;;;;;;;;;20.90;57.60;;;;;;1540555;76;1951;-63
2023/02/16 01:44:34;;;;;;;;;;;20.90;57.60;;;;;;1535587;76;699;-63
2023/02/16 01:46:39;;;;;;;;;;;20.90;57.70;;;;;;1538342;76;782;-63
2023/02/16 01:48:41;;;;;;;;;;;20.90;57.80;;;;;;1528124;77;799;-63
2023/02/16 01:50:44;;;;;;;;;;;20.90;57.70;;;;;;1533749;76;1133;-62
2023/02/16 01:53:00;;;;;;;;;;;20.80;57.50;;;;;;1542567;76;1938;-63
2023/02/16 01:55:03;;;;;;;;;;;20.80;57.60;;;;;;1535035;76;772;-62
2023/02/16 01:57:10;;;;;;;;;;;20.80;57.50;;;;;;1535685;76;806;-63
2023/02/16 01:59:14;;;;;;;;;;;20.90;57.70;;;;;;1546422;76;890;-63
2023/02/16 02:01:33;;;;;;;;;;;20.80;57.50;;;;;;1537766;76;1677;-63
2023/02/16 02:05:55;;;;;;;;;;;20.90;57.60;;;;;;1536362;76;1668;-63
2023/02/16 02:08:01;;;;;;;;;;;20.80;57.50;;;;;;1542582;76;673;-62
2023/02/16 02:10:05;;;;;;;;;;;20.80;57.60;;;;;;1535662;76;1099;-62
2023/02/16 02:12:09;;;;;;;;;;;20.80;57.50;;;;;;1551146;76;823;-62
2023/02/16 02:14:12;;;;;;;;;;;20.80;57.50;;;;;;1550676;76;698;-62
2023/02/16 02:16:18;;;;;;;;;;;20.80;57.50;;;;;;1544565;76;713;-61
2023/02/16 02:18:20;;;;;;;;;;;20.80;57.50;;;;;;1537211;76;683;-62
2023/02/16 02:23:29;;;;;;;;;;;20.90;57.60;;;;;;1535196;76;1578;-62
2023/02/16 02:24:56;;;;;;;;;;;20.80;57.40;;;;;;1535418;76;1393;-63
2023/02/16 02:27:02;;;;;;;;;;;20.90;57.60;;;;;;1533380;76;1972;-62
2023/02/16 02:29:08;;;;;;;;;;;20.80;57.40;;;;;;1534436;76;705;-63
2023/02/16 02:31:12;;;;;;;;;;;20.90;57.50;;;;;;1550483;76;1901;-63
2023/02/16 02:33:18;;;;;;;;;;;20.90;57.50;;;;;;1549418;76;1824;-62
2023/02/16 02:35:28;;;;;;;;;;;20.80;57.40;;;;;;1528392;76;1409;-62
2023/02/16 02:37:31;;;;;;;;;;;20.80;57.50;;;;;;1545014;76;1777;-63
2023/02/16 02:39:35;;;;;;;;;;;20.90;57.50;;;;;;1533529;76;750;-63
2023/02/16 02:42:06;;;;;;;;;;;20.90;57.60;;;;;;1540083;76;1161;-63
2023/02/16 02:44:07;;;;;;;;;;;20.90;57.50;;;;;;1544516;76;1928;-62
2023/02/16 02:46:14;;;;;;;;;;;20.80;57.40;;;;;;1539357;76;809;-63
2023/02/16 02:48:16;;;;;;;;;;;20.80;57.40;;;;;;1540624;76;1943;-65
2023/02/16 02:50:35;;;;;;;;;;;20.90;57.60;;;;;;1540940;76;1087;-65
2023/02/16 02:52:37;;;;;;;;;;;20.90;57.60;;;;;;1543539;76;951;-65
2023/02/16 03:01:47;;;;;;;;;;;20.80;57.50;;;;;;1550836;76;2000;-67
2023/02/16 03:03:50;;;;;;;;;;;20.80;57.50;;;;;;1546756;76;1928;-64
2023/02/16 03:05:54;;;;;;;;;;;20.80;57.40;;;;;;1546316;76;800;-68
2023/02/16 03:08:05;;;;;;;;;;;20.90;57.70;;;;;;1542205;76;1820;-65
2023/02/16 03:12:44;;;;;;;;;;;20.90;57.70;;;;;;1533521;76;1473;-65
2023/02/16 03:14:26;;;;;;;;;;;20.80;57.60;;;;;;1542348;76;1671;-64
2023/02/16 03:16:31;;;;;;;;;;;20.80;57.60;;;;;;1543434;76;1554;-65
2023/02/16 03:30:15;;;;;;;;;;;20.70;58.40;;;;;;1536908;76;1667;-64
2023/02/16 03:32:17;;;;;;;;;;;20.80;58.30;;;;;;1534124;76;674;-65
2023/02/16 03:34:19;;;;;;;;;;;20.80;58.30;;;;;;1534635;76;792;-66
2023/02/16 03:36:22;;;;;;;;;;;20.70;58.30;;;;;;1542564;76;666;-65
2023/02/16 03:38:24;;;;;;;;;;;20.80;58.20;;;;;;1541049;76;820;-64
2023/02/16 03:40:29;;;;;;;;;;;20.70;58.30;;;;;;1536917;76;1166;-64
2023/02/16 03:42:31;;;;;;;;;;;20.70;58.30;;;;;;1542812;76;768;-63
2023/02/16 03:44:33;;;;;;;;;;;20.70;58.40;;;;;;1538228;76;1950;-61
2023/02/16 03:46:35;;;;;;;;;;;20.80;58.30;;;;;;1535118;76;746;-62
2023/02/16 03:48:37;;;;;;;;;;;20.80;58.30;;;;;;1541883;76;775;-62
2023/02/16 03:50:39;;;;;;;;;;;20.80;58.30;;;;;;1539806;76;1134;-63
2023/02/16 03:52:40;;;;;;;;;;;20.80;58.30;;;;;;1540973;76;717;-62
2023/02/16 03:54:42;;;;;;;;;;;20.80;58.30;;;;;;1549082;76;769;-63
2023/02/16 03:56:44;;;;;;;;;;;20.70;58.20;;;;;;1542878;76;750;-62
2023/02/16 03:58:46;;;;;;;;;;;20.80;58.20;;;;;;1536383;76;1681;-62
2023/02/16 04:00:48;;;;;;;;;;;20.80;58.20;;;;;;1534048;76;1131;-63
2023/02/16 04:02:50;;;;;;;;;;;20.80;58.10;;;;;;1534743;76;1928;-63
2023/02/16 04:04:52;;;;;;;;;;;20.80;58.10;;;;;;1533174;76;680;-62
2023/02/16 04:06:54;;;;;;;;;;;20.80;58.10;;;;;;1547867;76;680;-62
2023/02/16 04:08:55;;;;;;;;;;;20.80;58.10;;;;;;1551848;76;696;-61
2023/02/16 04:10:58;;;;;;;;;;;20.80;58.20;;;;;;1549445;76;1136;-62
2023/02/16 04:13:00;;;;;;;;;;;20.80;58.20;;;;;;1535839;76;1590;-63
2023/02/16 04:15:07;;;;;;;;;;;20.80;58.20;;;;;;1544888;76;682;-62
2023/02/16 04:17:08;;;;;;;;;;;20.80;57.60;;;;;;1550819;76;754;-63
2023/02/16 04:19:10;;;;;;;;;;;20.80;58.20;;;;;;1551310;76;764;-63
2023/02/16 04:21:12;;;;;;;;;;;20.70;57.60;;;;;;1550253;76;1154;-63
2023/02/16 04:23:14;;;;;;;;;;;20.80;57.50;;;;;;1548643;76;1943;-63
2023/02/16 04:25:16;;;;;;;;;;;20.70;58.20;;;;;;1539574;76;688;-63
2023/02/16 04:27:18;;;;;;;;;;;20.70;58.20;;;;;;1539989;76;1544;-63
2023/02/16 04:29:20;;;;;;;;;;;20.80;58.10;;;;;;1533554;76;756;-62
2023/02/16 04:31:22;;;;;;;;;;;20.80;57.60;;;;;;1548915;76;1186;-62
2023/02/16 04:33:24;;;;;;;;;;;20.80;57.60;;;;;;1541983;76;781;-63
2023/02/16 04:35:25;;;;;;;;;;;20.80;57.60;;;;;;1539010;76;816;-62
2023/02/16 04:37:27;;;;;;;;;;;20.70;57.60;;;;;;1537450;76;785;-61
2023/02/16 04:39:29;;;;;;;;;;;20.70;58.10;;;;;;1548213;76;695;-62
2023/02/16 04:41:31;;;;;;;;;;;20.70;57.60;;;;;;1535850;76;1584;-62
2023/02/16 04:43:33;;;;;;;;;;;20.80;58.10;;;;;;1545173;76;1927;-62
2023/02/16 04:45:35;;;;;;;;;;;20.70;58.10;;;;;;1537656;76;712;-63
2023/02/16 04:47:37;;;;;;;;;;;20.70;58.10;;;;;;1542872;76;683;-63
2023/02/16 04:49:39;;;;;;;;;;;20.80;58.20;;;;;;1546791;76;720;-63
2023/02/16 04:51:41;;;;;;;;;;;20.70;58.20;;;;;;1544897;76;1111;-62
2023/02/16 04:53:43;;;;;;;;;;;20.80;58.10;;;;;;1534553;76;1568;-63
2023/02/16 04:55:48;;;;;;;;;;;20.70;57.60;;;;;;1537114;76;772;-64
2023/02/16 04:57:50;;;;;;;;;;;20.80;57.60;;;;;;1540206;76;768;-63
2023/02/16 04:59:51;;;;;;;;;;;20.70;58.10;;;;;;1548305;76;1138;-64
2023/02/16 05:01:53;;;;;;;;;;;20.70;57.60;;;;;;1547702;76;776;-63
2023/02/16 05:03:55;;;;;;;;;;;20.80;57.60;;;;;;1535588;76;1948;-63
2023/02/16 05:05:57;;;;;;;;;;;20.80;57.60;;;;;;1539483;76;720;-63
2023/02/16 05:07:59;;;;;;;;;;;20.80;57.50;;;;;;1547624;76;1580;-63
2023/02/16 05:10:01;;;;;;;;;;;20.80;57.60;;;;;;1539150;76;1081;-63
2023/02/16 05:14:46;;;;;;;;;;;20.70;58.10;;;;;;1541908;76;705;-62
2023/02/16 05:16:46;;;;;;;;;;;20.70;58.10;;;;;;1532689;76;1321;-62
2023/02/16 05:18:48;;;;;;;;;;;20.60;58.10;;;;;;1535733;76;747;-63
2023/02/16 05:23:09;;;;;;;;;;;20.60;58.20;;;;;;1536794;76;1662;-62
2023/02/16 05:25:11;;;;;;;;;;;20.60;58.30;;;;;;1543724;76;1952;-61
2023/02/16 05:27:17;;;;;;;;;;;20.60;58.20;;;;;;1544731;76;1088;-62
2023/02/16 05:29:19;;;;;;;;;;;20.60;58.40;;;;;;1542699;76;692;-62
2023/02/16 05:31:21;;;;;;;;;;;20.60;58.40;;;;;;1541849;76;1167;-62
2023/02/16 05:33:23;;;;;;;;;;;20.50;58.40;;;;;;1551810;76;743;-62
2023/02/16 05:35:25;;;;;;;;;;;20.60;58.50;;;;;;1543335;76;779;-62
2023/02/16 05:37:27;;;;;;;;;;;20.60;58.40;;;;;;1541818;76;1589;-61
2023/02/16 05:39:29;;;;;;;;;;;20.60;58.40;;;;;;1545664;76;785;-63
2023/02/16 05:41:30;;;;;;;;;;;20.60;58.30;;;;;;1537339;76;1164;-62
2023/02/16 05:43:32;;;;;;;;;;;20.60;58.20;;;;;;1544696;76;1924;-62
2023/02/16 05:45:34;;;;;;;;;;;20.70;58.20;;;;;;1535872;76;733;-62
2023/02/16 05:47:36;;;;;;;;;;;20.70;58.10;;;;;;1539901;76;732;-62
2023/02/16 05:49:38;;;;;;;;;;;20.70;58.20;;;;;;1551766;76;706;-64
2023/02/16 05:51:40;;;;;;;;;;;20.70;57.60;;;;;;1537028;76;1390;-62
2023/02/16 05:53:42;;;;;;;;;;;20.70;57.60;;;;;;1535391;76;755;-62
2023/02/16 05:55:44;;;;;;;;;;;20.80;57.60;;;;;;1539283;76;782;-61
2023/02/16 05:57:46;;;;;;;;;;;20.80;57.60;;;;;;1540655;76;815;-62
2023/02/16 05:59:47;;;;;;;;;;;20.80;58.10;;;;;;1543982;76;1084;-63
2023/02/16 06:01:49;;;;;;;;;;;20.70;58.50;;;;;;1544706;76;723;-64
2023/02/16 06:03:51;;;;;;;;;;;20.80;59.00;;;;;;1546390;76;1944;-64
2023/02/16 06:05:54;;;;;;;;;;;20.60;58.90;;;;;;1537325;76;1646;-64
2023/02/16 06:07:56;;;;;;;;;;;20.70;58.80;;;;;;1545896;76;674;-62
2023/02/16 06:09:57;;;;;;;;;;;20.70;58.60;;;;;;1536356;76;1164;-64
2023/02/16 06:11:59;;;;;;;;;;;20.70;58.50;;;;;;1547176;76;682;-63
2023/02/16 06:14:03;;;;;;;;;;;20.70;58.40;;;;;;1544433;76;762;-62
2023/02/16 06:16:05;;;;;;;;;;;20.70;58.40;;;;;;1544920;76;1870;-64
2023/02/16 06:18:07;;;;;;;;;;;20.70;58.30;;;;;;1541465;76;1302;-64
2023/02/16 06:20:09;;;;;;;;;;;20.70;58.20;;;;;;1539290;76;1196;-63
2023/02/16 06:22:11;;;;;;;;;;;20.70;58.20;;;;;;1550605;76;760;-62
2023/02/16 06:24:13;;;;;;;;;;;20.80;58.10;;;;;;1539557;76;1943;-63
2023/02/16 06:26:15;;;;;;;;;;;20.80;58.10;;;;;;1538335;76;686;-63
2023/02/16 06:28:17;;;;;;;;;;;20.80;57.60;;;;;;1547280;76;1096;-63
2023/02/16 06:30:19;;;;;;;;;;;20.90;57.70;;;;;;1535604;76;1199;-63
2023/02/16 06:32:21;;;;;;;;;;;20.90;57.70;;;;;;1536916;76;1538;-62
2023/02/16 06:34:23;;;;;;;;;;;20.80;57.50;;;;;;1541186;76;754;-63
2023/02/16 06:36:25;;;;;;;;;;;20.70;58.10;;;;;;1541801;76;727;-64
2023/02/16 06:38:26;;;;;;;;;;;20.80;57.60;;;;;;1547216;76;818;-64
2023/02/16 06:40:28;;;;;;;;;;;20.80;58.10;;;;;;1537946;76;1352;-67
2023/02/16 06:42:30;;;;;;;;;;;20.80;58.10;;;;;;1539732;76;690;-66
2023/02/16 06:44:32;;;;;;;;;;;20.70;58.20;;;;;;1546674;76;1947;-63
2023/02/16 06:46:34;;;;;;;;;;;20.70;58.40;;;;;;1542235;76;1534;-62
2023/02/16 06:48:36;;;;;;;;;;;20.80;58.30;;;;;;1537285;76;670;-64
2023/02/16 06:50:38;;;;;;;;;;;20.80;58.30;;;;;;1548058;76;1153;-63
2023/02/16 06:52:40;;;;;;;;;;;20.80;58.10;;;;;;1541495;76;711;-62
2023/02/16 06:54:41;;;;;;;;;;;20.80;58.20;;;;;;1542505;76;785;-63
2023/02/16 06:56:43;;;;;;;;;;;20.80;57.60;;;;;;1536276;76;711;-63
2023/02/16 06:58:45;;;;;;;;;;;20.80;58.20;;;;;;1548720;76;707;-63
2023/02/16 07:00:47;;;;;;;;;;;20.80;57.60;;;;;;1552184;76;1603;-62
2023/02/16 07:02:50;;;;;;;;;;;20.80;57.40;;;;;;1540687;76;679;-62
2023/02/16 07:04:53;;;;;;;;;;;20.80;57.30;;;;;;1553469;76;1924;-64
2023/02/16 07:06:55;;;;;;;;;;;20.80;57.30;;;;;;1545995;76;745;-63
2023/02/16 07:08:57;;;;;;;;;;;20.80;57.20;;;;;;1550953;76;718;-62
2023/02/16 07:10:58;;;;;;;;;;;20.90;57.30;;;;;;1544249;76;1141;-63
2023/02/16 07:13:00;;;;;;;;;;;20.80;57.00;;;;;;1534287;76;783;-63
2023/02/16 07:15:03;;;;;;;;;;;20.90;57.10;;;;;;1533525;76;1572;-62
2023/02/16 07:17:04;;;;;;;;;;;20.80;56.90;;;;;;1542640;76;784;-63
2023/02/16 07:19:07;;;;;;;;;;;20.80;56.90;;;;;;1538220;76;719;-63
2023/02/16 07:21:09;;;;;;;;;;;20.80;56.80;;;;;;1546588;76;1130;-62
2023/02/16 07:23:11;;;;;;;;;;;20.80;56.80;;;;;;1538933;76;760;-62
2023/02/16 07:25:13;;;;;;;;;;;20.80;56.80;;;;;;1540856;76;1947;-64
2023/02/16 07:27:14;;;;;;;;;;;20.80;56.80;;;;;;1541338;76;716;-63
2023/02/16 07:29:16;;;;;;;;;;;20.80;56.80;;;;;;1534988;76;1553;-63
2023/02/16 07:31:18;;;;;;;;;;;20.70;57.10;;;;;;1537029;76;1194;-63
2023/02/16 07:33:20;;;;;;;;;;;20.80;57.20;;;;;;1535310;76;750;-63
2023/02/16 07:35:22;;;;;;;;;;;20.60;57.50;;;;;;1540922;76;737;-65
2023/02/16 07:37:24;;;;;;;;;;;20.60;58.00;;;;;;1540810;76;755;-63
2023/02/16 07:39:28;;;;;;;;;;;20.60;58.10;;;;;;1534681;76;750;-64
2023/02/16 07:41:29;;;;;;;;;;;20.60;58.10;;;;;;1536251;76;1727;-64
2023/02/16 07:43:31;;;;;;;;;;;20.60;58.10;;;;;;1534388;76;1330;-65
2023/02/16 07:45:33;;;;;;;;;;;20.60;58.00;;;;;;1537638;76;1949;-65
2023/02/16 07:47:35;;;;;;;;;;;20.70;57.60;;;;;;1537847;76;731;-64
2023/02/16 07:49:37;;;;;;;;;;;20.60;57.40;;;;;;1541677;76;720;-63
2023/02/16 07:51:39;;;;;;;;;;;20.70;57.50;;;;;;1540701;76;1143;-64
2023/02/16 07:53:41;;;;;;;;;;;20.80;57.30;;;;;;1548389;76;748;-64
2023/02/16 07:55:43;;;;;;;;;;;20.80;57.10;;;;;;1536758;76;720;-65
2023/02/16 07:57:48;;;;;;;;;;;20.80;56.80;;;;;;1534462;76;1574;-64
2023/02/16 07:59:51;;;;;;;;;;;20.80;56.70;;;;;;1545372;76;1709;-64
2023/02/16 08:01:53;;;;;;;;;;;20.90;56.70;;;;;;1546245;76;603;-62
2023/02/16 08:03:55;;;;;;;;;;;20.90;56.50;;;;;;1543287;76;687;-64
2023/02/16 08:05:58;;;;;;;;;;;20.80;56.20;;;;;;1544090;76;1950;-64
2023/02/16 08:08:00;;;;;;;;;;;20.80;56.30;;;;;;1544469;76;817;-65
2023/02/16 08:10:02;;;;;;;;;;;20.80;56.30;;;;;;1548032;76;1156;-66
2023/02/16 08:12:04;;;;;;;;;;;20.80;56.10;;;;;;1533837;76;1559;-64
2023/02/16 08:14:06;;;;;;;;;;;20.80;56.30;;;;;;1543991;76;719;-64
2023/02/16 08:16:11;;;;;;;;;;;20.80;56.30;;;;;;1534359;76;682;-64
2023/02/16 08:18:14;;;;;;;;;;;20.90;56.30;;;;;;1535222;76;661;-63
2023/02/16 08:20:15;;;;;;;;;;;20.80;56.00;;;;;;1536290;76;1162;-62
2023/02/16 08:22:17;;;;;;;;;;;20.90;56.10;;;;;;1534633;76;699;-65
2023/02/16 08:24:20;;;;;;;;;;;20.90;56.00;;;;;;1539462;76;1911;-63
2023/02/16 08:26:22;;;;;;;;;;;20.90;56.00;;;;;;1540891;76;1474;-64
2023/02/16 08:28:27;;;;;;;;;;;20.90;56.00;;;;;;1534320;76;1109;-63
2023/02/16 08:30:27;;;;;;;;;;;20.90;55.90;;;;;;1539258;76;1676;-63
2023/02/16 08:32:29;;;;;;;;;;;20.90;55.80;;;;;;1537574;76;700;-62
2023/02/16 08:34:31;;;;;;;;;;;20.90;55.50;;;;;;1540204;76;740;-61
2023/02/16 08:36:34;;;;;;;;;;;20.90;54.20;;;;;;1536286;76;747;-62
2023/02/16 08:38:36;;;;;;;;;;;20.90;52.80;;;;;;1540782;76;721;-62
2023/02/16 08:40:38;;;;;;;;;;;20.90;52.10;;;;;;1547851;76;1686;-61
2023/02/16 08:42:40;;;;;;;;;;;21.00;51.30;;;;;;1537671;76;744;-62
2023/02/16 08:44:42;;;;;;;;;;;20.80;50.70;;;;;;1539207;76;1923;-62
2023/02/16 08:46:45;;;;;;;;;;;20.80;49.10;;;;;;1543368;76;938;-62
2023/02/16 08:48:47;;;;;;;;;;;20.70;51.40;;;;;;1551408;76;749;-62
2023/02/16 08:50:55;;;;;;;;;;;20.80;52.40;;;;;;1547072;76;1149;-62
2023/02/16 08:52:57;;;;;;;;;;;20.70;52.80;;;;;;1549130;76;1558;-62
2023/02/16 08:54:59;;;;;;;;;;;20.70;53.10;;;;;;1538041;76;815;-62
2023/02/16 08:57:01;;;;;;;;;;;20.70;53.40;;;;;;1540849;76;703;-61
2023/02/16 08:59:03;;;;;;;;;;;20.70;53.60;;;;;;1538015;76;753;-63
2023/02/16 09:01:07;;;;;;;;;;;20.80;53.80;;;;;;1543072;76;1158;-63
2023/02/16 09:03:08;;;;;;;;;;;20.80;53.90;;;;;;1539222;76;754;-61
2023/02/16 09:05:10;;;;;;;;;;;20.80;54.10;;;;;;1545009;76;1944;-63
2023/02/16 09:07:12;;;;;;;;;;;20.80;54.20;;;;;;1534884;76;1489;-63
2023/02/16 09:09:14;;;;;;;;;;;20.80;54.30;;;;;;1538217;76;783;-63
2023/02/16 09:11:16;;;;;;;;;;;20.80;54.30;;;;;;1533828;76;1143;-63
2023/02/16 09:13:18;;;;;;;;;;;20.80;54.40;;;;;;1534242;76;816;-63
2023/02/16 09:15:21;;;;;;;;;;;20.80;54.40;;;;;;1539240;76;793;-62
2023/02/16 09:17:23;;;;;;;;;;;20.80;54.50;;;;;;1543506;76;957;-63
2023/02/16 09:19:27;;;;;;;;;;;20.80;54.60;;;;;;1537671;76;755;-62
2023/02/16 09:21:34;;;;;;;;;;;20.90;54.70;;;;;;1542250;76;1580;-62
2023/02/16 09:23:34;;;;;;;;;;;20.90;54.80;;;;;;1531219;76;1567;-63
2023/02/16 09:25:37;;;;;;;;;;;20.90;54.80;;;;;;1538756;76;1916;-62
2023/02/16 09:27:39;;;;;;;;;;;20.90;54.80;;;;;;1545288;76;692;-62
2023/02/16 09:29:42;;;;;;;;;;;21.00;54.70;;;;;;1550475;76;1075;-62
2023/02/16 09:31:45;;;;;;;;;;;21.00;54.50;;;;;;1552509;76;714;-64
2023/02/16 09:33:47;;;;;;;;;;;21.10;54.40;;;;;;1542143;76;720;-62
2023/02/16 09:35:49;;;;;;;;;;;21.10;54.30;;;;;;1534309;76;1483;-61
2023/02/16 09:37:51;;;;;;;;;;;21.10;54.10;;;;;;1539277;76;725;-63
2023/02/16 09:39:53;;;;;;;;;;;21.10;54.00;;;;;;1541687;76;1198;-62
2023/02/16 09:41:56;;;;;;;;;;;21.20;53.90;;;;;;1543743;76;763;-63
2023/02/16 09:44:03;;;;;;;;;;;21.20;53.80;;;;;;1536616;76;2004;-64
2023/02/16 09:46:04;;;;;;;;;;;21.30;53.90;;;;;;1534227;76;1941;-62
2023/02/16 09:48:08;;;;;;;;;;;21.20;53.60;;;;;;1530176;77;1196;-62
2023/02/16 09:50:20;;;;;;;;;;;21.20;53.50;;;;;;1547285;76;1342;-64
2023/02/16 09:52:42;;;;;;;;;;;21.20;53.40;;;;;;1541313;76;654;-64
2023/02/16 09:54:54;;;;;;;;;;;21.20;53.30;;;;;;1553173;76;1514;-63
2023/02/16 09:56:57;;;;;;;;;;;21.40;53.40;;;;;;1538597;76;1070;-63
2023/02/16 09:59:03;;;;;;;;;;;21.30;53.30;;;;;;1548861;76;710;-63
2023/02/16 10:01:07;;;;;;;;;;;21.30;53.10;;;;;;1537239;76;1147;-63
2023/02/16 10:03:29;;;;;;;;;;;21.40;53.10;;;;;;1536075;76;1321;-63
2023/02/16 10:05:32;;;;;;;;;;;21.40;52.70;;;;;;1533283;76;1906;-63
2023/02/16 10:07:35;;;;;;;;;;;21.30;52.40;;;;;;1533235;76;705;-63
2023/02/16 10:09:37;;;;;;;;;;;21.30;51.80;;;;;;1546753;76;730;-63
2023/02/16 10:11:53;;;;;;;;;;;21.30;51.60;;;;;;1541714;76;1175;-64
2023/02/16 10:13:56;;;;;;;;;;;21.30;51.50;;;;;;1537776;76;754;-65
2023/02/16 10:15:58;;;;;;;;;;;21.30;51.50;;;;;;1543547;76;788;-64
2023/02/16 10:18:07;;;;;;;;;;;21.30;51.60;;;;;;1539663;76;1591;-64
2023/02/16 10:20:23;;;;;;;;;;;21.30;51.70;;;;;;1545729;76;1137;-67
2023/02/16 10:22:27;;;;;;;;;;;21.30;51.90;;;;;;1526840;77;823;-64
2023/02/16 10:24:29;;;;;;;;;;;21.20;51.80;;;;;;1545707;76;950;-64
2023/02/16 10:26:32;;;;;;;;;;;21.20;51.90;;;;;;1539350;76;1936;-65
2023/02/16 10:28:38;;;;;;;;;;;21.20;52.00;;;;;;1537312;76;800;-64
2023/02/16 10:30:41;;;;;;;;;;;21.10;51.80;;;;;;1543048;76;1130;-65
2023/02/16 10:32:45;;;;;;;;;;;21.10;51.80;;;;;;1540782;76;1343;-64
2023/02/16 10:34:48;;;;;;;;;;;21.10;51.80;;;;;;1530565;76;1709;-64
2023/02/16 10:36:54;;;;;;;;;;;21.10;51.80;;;;;;1543316;76;727;-64
2023/02/16 10:38:58;;;;;;;;;;;21.00;51.70;;;;;;1536563;76;1921;-64
2023/02/16 10:41:18;;;;;;;;;;;21.10;51.80;;;;;;1546702;76;1158;-65
2023/02/16 10:43:22;;;;;;;;;;;21.10;51.90;;;;;;1539599;76;745;-64
2023/02/16 10:45:26;;;;;;;;;;;21.10;51.90;;;;;;1542890;76;1914;-64
2023/02/16 10:47:37;;;;;;;;;;;21.00;51.80;;;;;;1539276;76;734;-68
2023/02/16 10:49:39;;;;;;;;;;;21.00;51.90;;;;;;1546825;76;733;-69
2023/02/16 10:51:42;;;;;;;;;;;21.00;51.90;;;;;;1552150;76;1192;-65
2023/02/16 10:53:45;;;;;;;;;;;21.10;52.00;;;;;;1536547;76;729;-65
2023/02/16 10:55:47;;;;;;;;;;;21.10;52.10;;;;;;1550110;76;679;-64
2023/02/16 10:57:51;;;;;;;;;;;21.10;52.10;;;;;;1542894;76;755;-64
2023/02/16 10:59:53;;;;;;;;;;;21.10;52.10;;;;;;1540624;76;1529;-64
2023/02/16 11:01:56;;;;;;;;;;;21.10;52.20;;;;;;1540448;76;823;-65
2023/02/16 11:03:58;;;;;;;;;;;21.00;52.20;;;;;;1541117;76;734;-65
2023/02/16 11:06:19;;;;;;;;;;;21.00;52.20;;;;;;1552375;76;1923;-65
2023/02/16 11:08:22;;;;;;;;;;;21.00;52.20;;;;;;1537202;76;742;-65
2023/02/16 11:10:34;;;;;;;;;;;21.00;52.30;;;;;;1541260;76;1245;-64
2023/02/16 11:12:38;;;;;;;;;;;21.10;52.50;;;;;;1544805;76;695;-64
2023/02/16 11:14:40;;;;;;;;;;;21.00;52.40;;;;;;1545766;76;1568;-65
2023/02/16 11:16:42;;;;;;;;;;;21.10;52.50;;;;;;1537831;76;738;-65
2023/02/16 11:18:45;;;;;;;;;;;21.00;52.40;;;;;;1551682;76;694;-65
2023/02/16 11:20:49;;;;;;;;;;;21.10;52.60;;;;;;1544986;76;1168;-65
2023/02/16 11:22:51;;;;;;;;;;;21.10;52.60;;;;;;1550207;76;776;-64
2023/02/16 11:24:54;;;;;;;;;;;21.10;52.60;;;;;;1552386;76;699;-66
2023/02/16 11:27:01;;;;;;;;;;;21.10;52.60;;;;;;1541293;76;1911;-65
2023/02/16 11:29:05;;;;;;;;;;;21.10;52.70;;;;;;1530900;76;1659;-64
2023/02/16 11:31:16;;;;;;;;;;;21.10;52.80;;;;;;1545467;76;1134;-67
2023/02/16 11:33:20;;;;;;;;;;;21.10;52.80;;;;;;1537867;76;772;-72
2023/02/16 11:35:22;;;;;;;;;;;21.10;52.80;;;;;;1536150;76;909;-65
2023/02/16 11:37:27;;;;;;;;;;;21.10;52.90;;;;;;1539313;76;738;-67
2023/02/16 11:39:31;;;;;;;;;;;21.20;52.90;;;;;;1535702;76;766;-65
2023/02/16 11:41:33;;;;;;;;;;;21.10;53.10;;;;;;1536039;76;1567;-64
2023/02/16 11:43:36;;;;;;;;;;;21.10;53.10;;;;;;1538674;76;727;-65
2023/02/16 11:45:37;;;;;;;;;;;21.10;53.10;;;;;;1545398;76;1916;-65
2023/02/16 11:47:40;;;;;;;;;;;21.10;53.10;;;;;;1535085;76;776;-64
2023/02/16 11:49:42;;;;;;;;;;;21.10;53.10;;;;;;1535281;76;744;-64
2023/02/16 11:51:44;;;;;;;;;;;21.10;53.10;;;;;;1535288;76;777;-64
2023/02/16 11:53:46;;;;;;;;;;;21.10;53.20;;;;;;1539873;76;753;-61
2023/02/16 11:55:48;;;;;;;;;;;21.20;53.10;;;;;;1523532;77;1606;-63
2023/02/16 11:57:50;;;;;;;;;;;21.10;53.20;;;;;;1535660;76;729;-62
2023/02/16 11:59:52;;;;;;;;;;;21.10;53.20;;;;;;1537776;76;1142;-62
2023/02/16 12:02:10;;;;;;;;;;;21.20;53.30;;;;;;1535091;76;734;-63
2023/02/16 12:04:31;;;;;;;;;;;21.20;53.30;;;;;;1535003;76;780;-62
2023/02/16 12:06:43;;;;;;;;;;;21.20;53.30;;;;;;1538362;76;1909;-63
2023/02/16 12:08:47;;;;;;;;;;;21.10;53.40;;;;;;1517997;76;1665;-62
2023/02/16 12:11:05;;;;;;;;;;;21.10;53.40;;;;;;1510741;76;1682;-62
2023/02/16 12:13:12;;;;;;;;;;;21.10;53.40;;;;;;1494810;78;1059;-62
2023/02/16 12:15:20;;;;;;;;;;;21.10;53.40;;;;;;1522663;76;1705;-62
2023/02/16 12:17:23;;;;;;;;;;;21.10;53.50;;;;;;1540749;76;766;-63
2023/02/16 12:19:39;;;;;;;;;;;21.10;53.50;;;;;;1518869;76;1737;-62
2023/02/16 12:21:44;;;;;;;;;;;21.10;53.50;;;;;;1537418;76;1944;-61
2023/02/16 12:23:57;;;;;;;;;;;21.10;53.50;;;;;;1536445;76;1563;-62
2023/02/16 12:26:15;;;;;;;;;;;21.10;53.50;;;;;;1534661;76;1926;-63
2023/02/16 12:28:19;;;;;;;;;;;21.10;53.60;;;;;;1541722;76;1594;-62
2023/02/16 12:30:25;;;;;;;;;;;21.10;53.60;;;;;;1543512;76;1146;-63
2023/02/16 12:32:38;;;;;;;;;;;21.10;53.60;;;;;;1531798;75;1896;-62
2023/02/16 12:34:47;;;;;;;;;;;21.10;53.70;;;;;;1531616;75;913;-62
2023/02/16 12:37:03;;;;;;;;;;;21.10;53.60;;;;;;1517733;75;1492;-62
2023/02/16 12:39:07;;;;;;;;;;;21.10;53.60;;;;;;1529004;75;1554;-62
2023/02/16 12:41:16;;;;;;;;;;;21.10;53.60;;;;;;1529111;75;1426;-62
2023/02/16 12:43:30;;;;;;;;;;;21.10;53.70;;;;;;1535657;75;714;-62
2023/02/16 12:45:33;;;;;;;;;;;21.10;53.70;;;;;;1527152;75;1008;-62
2023/02/16 12:47:36;;;;;;;;;;;21.10;53.70;;;;;;1492649;77;1934;-61
2023/02/16 12:49:42;;;;;;;;;;;21.10;53.70;;;;;;1533470;75;803;-62
2023/02/16 12:51:52;;;;;;;;;;;21.10;53.70;;;;;;1539851;75;717;-62
2023/02/16 12:53:58;;;;;;;;;;;21.20;53.80;;;;;;1520077;75;814;-61